Time;durP1;ratioP1;P1;durP2;ratioP2;P2;SDS_P1;SDS_P2;PMS_P1;PMS_P2;Temp;Humidity;BMP_temperature;BMP_pressure;BME280_temperature;BME280_humidity;BME280_pressure;Samples;Min_cycle;Max_cycle;Signal;HPM_P1;HPM_P2
2024/04/20 04:02:54;;;;;;;0.90;0.80;;;5.30;97.30;;;;;;5282128;27;20595;-66
2024/04/20 04:05:19;;;;;;;0.80;0.70;;;5.30;97.30;;;;;;5295413;27;20546;-65
2024/04/20 04:07:45;;;;;;;0.90;0.80;;;5.30;97.30;;;;;;5296326;27;20772;-66
2024/04/20 04:10:11;;;;;;;0.90;0.80;;;5.30;97.30;;;;;;5299578;27;20240;-67
2024/04/20 04:12:37;;;;;;;1.30;1.20;;;5.30;97.30;;;;;;5330437;26;20754;-68
2024/04/20 04:15:03;;;;;;;1.10;1.00;;;5.20;97.30;;;;;;5324338;26;20552;-63
2024/04/20 04:17:28;;;;;;;1.20;1.10;;;5.20;97.30;;;;;;5324014;26;20232;-63
2024/04/20 04:19:54;;;;;;;0.90;0.80;;;5.20;97.30;;;;;;5326950;26;20235;-65
2024/04/20 04:22:19;;;;;;;0.80;0.70;;;5.20;97.30;;;;;;5332709;26;20293;-64
2024/04/20 04:24:45;;;;;;;0.93;0.83;;;5.20;97.30;;;;;;5331813;26;20235;-65
2024/04/20 04:27:12;;;;;;;0.90;0.90;;;5.20;97.30;;;;;;5337686;26;20231;-64
2024/04/20 04:29:40;;;;;;;0.90;0.80;;;5.20;97.30;;;;;;5332303;26;20883;-67
2024/04/20 04:32:06;;;;;;;1.00;1.00;;;5.20;97.30;;;;;;5315606;26;20467;-65
2024/04/20 04:34:31;;;;;;;0.90;0.80;;;5.20;97.30;;;;;;5333102;26;20512;-66
2024/04/20 04:36:57;;;;;;;0.90;0.80;;;5.10;97.30;;;;;;5325098;26;20461;-68
2024/04/20 04:39:22;;;;;;;1.40;1.33;;;5.10;97.30;;;;;;5318979;26;20238;-64
2024/04/20 04:41:48;;;;;;;0.90;0.80;;;5.10;97.30;;;;;;5335385;26;20247;-64
2024/04/20 04:44:13;;;;;;;1.00;0.90;;;5.10;97.30;;;;;;5325433;26;20247;-67
2024/04/20 04:46:39;;;;;;;1.00;0.90;;;5.10;97.30;;;;;;5320483;26;20254;-65
2024/04/20 04:49:04;;;;;;;0.93;0.83;;;5.00;97.30;;;;;;5338103;26;20629;-64
2024/04/20 04:51:30;;;;;;;1.00;0.90;;;5.00;97.30;;;;;;5338902;26;20600;-64
2024/04/20 04:53:56;;;;;;;0.90;0.80;;;5.00;97.30;;;;;;5323355;26;20265;-68
2024/04/20 04:56:21;;;;;;;0.90;0.80;;;5.00;97.30;;;;;;5320272;26;20274;-67
2024/04/20 04:58:47;;;;;;;0.90;0.80;;;5.00;97.30;;;;;;5318301;26;20258;-67
2024/04/20 05:01:13;;;;;;;1.10;1.00;;;5.00;97.30;;;;;;5316980;26;20333;-69
2024/04/20 05:03:38;;;;;;;0.90;0.80;;;5.00;97.30;;;;;;5342529;26;20461;-68
2024/04/20 05:06:04;;;;;;;0.80;0.70;;;5.00;97.30;;;;;;5323348;26;20375;-69
2024/04/20 05:08:30;;;;;;;0.90;0.80;;;5.00;97.30;;;;;;5326925;26;20232;-65
2024/04/20 05:10:55;;;;;;;0.90;0.80;;;5.10;97.30;;;;;;5335687;26;20268;-69
2024/04/20 05:13:21;;;;;;;0.80;0.70;;;5.10;97.30;;;;;;5329014;26;20623;-66
2024/04/20 05:15:46;;;;;;;1.13;1.03;;;5.10;97.30;;;;;;5366751;26;20239;-67
2024/04/20 05:18:13;;;;;;;1.00;0.90;;;5.10;97.30;;;;;;5318787;26;20232;-66
2024/04/20 05:20:39;;;;;;;0.90;0.80;;;5.10;97.30;;;;;;5330516;26;20578;-66
2024/04/20 05:23:05;;;;;;;1.10;1.00;;;5.10;97.30;;;;;;5331905;26;20526;-68
2024/04/20 05:25:30;;;;;;;0.90;0.80;;;5.10;97.30;;;;;;5332891;26;20621;-61
2024/04/20 05:27:56;;;;;;;1.87;1.10;;;5.10;97.30;;;;;;5340548;26;20512;-69
2024/04/20 05:30:21;;;;;;;0.90;0.80;;;5.10;97.30;;;;;;5338182;26;20239;-66
2024/04/20 05:32:47;;;;;;;0.90;0.80;;;5.10;97.30;;;;;;5331628;26;20308;-66
2024/04/20 05:35:12;;;;;;;2.63;1.63;;;5.10;97.30;;;;;;5340403;26;20782;-66
2024/04/20 05:37:38;;;;;;;0.90;0.80;;;5.10;97.30;;;;;;5340802;26;20715;-64
2024/04/20 05:40:05;;;;;;;0.80;0.70;;;5.10;97.30;;;;;;5332355;26;20281;-66
2024/04/20 05:42:30;;;;;;;0.90;0.80;;;5.00;97.30;;;;;;5330291;26;20325;-63
2024/04/20 05:44:56;;;;;;;0.90;0.80;;;5.00;97.30;;;;;;5327542;26;20963;-65
2024/04/20 05:47:22;;;;;;;0.90;0.80;;;5.00;97.30;;;;;;5339896;26;20827;-66
2024/04/20 05:49:47;;;;;;;1.13;1.03;;;5.00;97.30;;;;;;5332343;26;20277;-64
2024/04/20 05:52:13;;;;;;;0.90;0.80;;;5.00;97.30;;;;;;5329691;26;20613;-63
2024/04/20 05:54:38;;;;;;;0.83;0.73;;;4.90;97.30;;;;;;5329936;26;20289;-65
2024/04/20 05:57:05;;;;;;;1.10;1.00;;;4.90;97.30;;;;;;5335967;26;20730;-63
2024/04/20 05:59:31;;;;;;;1.47;1.10;;;4.90;97.30;;;;;;5337078;26;20466;-63
2024/04/20 06:01:56;;;;;;;1.30;0.80;;;4.90;97.30;;;;;;5330606;26;20528;-65
2024/04/20 06:04:22;;;;;;;0.90;0.80;;;4.90;97.30;;;;;;5339788;26;20238;-66
2024/04/20 06:06:48;;;;;;;0.90;0.80;;;4.90;97.30;;;;;;5332769;26;20222;-63
2024/04/20 06:09:13;;;;;;;0.90;0.80;;;4.90;97.30;;;;;;5332598;26;20752;-63
2024/04/20 06:11:39;;;;;;;1.00;0.90;;;4.90;97.30;;;;;;5337767;26;20239;-67
2024/04/20 06:14:04;;;;;;;1.20;1.10;;;4.90;97.30;;;;;;5328259;26;20269;-64
2024/04/20 06:16:30;;;;;;;0.90;0.80;;;4.90;97.30;;;;;;5324149;26;20244;-66
2024/04/20 06:18:55;;;;;;;0.80;0.70;;;4.90;97.30;;;;;;5320423;26;20234;-63
2024/04/20 06:21:21;;;;;;;0.80;0.70;;;4.90;97.30;;;;;;5339355;26;20706;-66
2024/04/20 06:23:47;;;;;;;0.80;0.70;;;4.90;97.30;;;;;;5322642;26;20362;-64
2024/04/20 06:26:13;;;;;;;1.40;1.00;;;4.90;97.30;;;;;;5330711;26;20454;-63
2024/04/20 06:28:38;;;;;;;0.90;0.80;;;4.90;97.30;;;;;;5339482;26;20533;-66
2024/04/20 06:31:04;;;;;;;1.10;1.00;;;4.90;97.30;;;;;;5337325;26;20289;-66
2024/04/20 06:33:30;;;;;;;0.90;0.80;;;5.00;97.30;;;;;;5329910;26;20370;-66
2024/04/20 06:35:55;;;;;;;1.00;0.90;;;5.10;97.30;;;;;;5337934;26;20329;-67
2024/04/20 06:38:21;;;;;;;0.90;0.80;;;5.10;97.30;;;;;;5326102;26;20227;-62
2024/04/20 06:40:48;;;;;;;0.90;0.80;;;5.10;97.30;;;;;;5337669;26;20660;-63
2024/04/20 06:43:14;;;;;;;0.90;0.80;;;5.00;97.30;;;;;;5333491;26;20603;-61
2024/04/20 06:45:40;;;;;;;0.87;0.77;;;5.10;97.30;;;;;;5331176;26;20457;-64
2024/04/20 06:48:06;;;;;;;0.90;0.80;;;5.00;97.30;;;;;;5332756;26;20726;-61
2024/04/20 06:50:31;;;;;;;0.90;0.80;;;5.00;97.30;;;;;;5324279;26;20609;-61
2024/04/20 06:52:57;;;;;;;0.90;0.80;;;5.00;97.30;;;;;;5326166;26;20220;-61
2024/04/20 06:55:22;;;;;;;1.00;0.90;;;5.10;97.30;;;;;;5326170;26;20274;-61
2024/04/20 06:57:47;;;;;;;0.90;0.80;;;5.10;97.30;;;;;;5331029;26;20235;-61
2024/04/20 07:00:13;;;;;;;1.10;1.00;;;5.20;97.30;;;;;;5332663;26;20219;-62
2024/04/20 07:02:39;;;;;;;0.90;0.80;;;5.30;97.30;;;;;;5336246;26;20269;-63
2024/04/20 07:05:06;;;;;;;1.00;0.90;;;5.40;97.30;;;;;;5339070;26;20922;-64
2024/04/20 07:07:34;;;;;;;1.00;0.90;;;5.50;97.30;;;;;;5324798;26;20232;-63
2024/04/20 07:09:59;;;;;;;1.33;1.23;;;5.60;97.30;;;;;;5332882;26;20943;-62
2024/04/20 07:12:25;;;;;;;2.13;1.97;;;5.60;97.30;;;;;;5330972;26;20469;-61
2024/04/20 07:14:50;;;;;;;0.83;0.73;;;5.60;97.30;;;;;;5324699;26;20227;-63
2024/04/20 07:17:16;;;;;;;1.13;1.03;;;5.60;97.30;;;;;;5325742;26;20877;-64
2024/04/20 07:19:41;;;;;;;1.23;1.13;;;5.60;97.30;;;;;;5336503;26;20231;-63
2024/04/20 07:22:07;;;;;;;0.90;0.80;;;5.70;97.30;;;;;;5336125;26;20274;-62
2024/04/20 07:24:32;;;;;;;0.90;0.80;;;5.80;97.30;;;;;;5335290;26;20264;-62
2024/04/20 07:26:59;;;;;;;1.00;0.90;;;5.80;97.30;;;;;;5336493;26;20842;-62
2024/04/20 07:29:24;;;;;;;0.90;0.80;;;5.90;97.30;;;;;;5317104;26;20240;-63
2024/04/20 07:31:53;;;;;;;0.93;0.83;;;5.90;97.30;;;;;;5338660;26;21009;-61
2024/04/20 07:34:29;;;;;;;1.37;1.30;;;6.00;97.30;;;;;;5332893;26;20269;-62
2024/04/20 07:36:55;;;;;;;1.23;0.90;;;5.90;97.30;;;;;;5332366;26;20583;-62
2024/04/20 07:39:20;;;;;;;1.40;1.30;;;5.90;97.30;;;;;;5332753;26;20997;-62
2024/04/20 07:41:46;;;;;;;1.10;1.03;;;6.00;97.30;;;;;;5331399;26;20302;-62
2024/04/20 07:44:12;;;;;;;0.90;0.80;;;6.00;97.30;;;;;;5320848;26;20736;-62
2024/04/20 07:46:38;;;;;;;0.90;0.80;;;6.10;97.30;;;;;;5331528;26;20721;-63
2024/04/20 07:49:03;;;;;;;1.00;0.80;;;6.30;97.30;;;;;;5331282;26;21066;-62
2024/04/20 07:51:29;;;;;;;1.00;0.90;;;6.40;97.30;;;;;;5334386;26;20243;-62
2024/04/20 07:53:54;;;;;;;3.47;0.97;;;6.40;97.30;;;;;;5333797;26;20227;-62
2024/04/20 07:56:20;;;;;;;0.90;0.80;;;6.40;97.30;;;;;;5338934;26;20273;-63
2024/04/20 07:58:45;;;;;;;1.00;0.90;;;6.60;97.30;;;;;;5338636;26;20333;-62
2024/04/20 08:01:11;;;;;;;0.90;0.80;;;6.60;97.30;;;;;;5334859;26;20313;-63
2024/04/20 08:03:36;;;;;;;0.90;0.80;;;6.60;97.30;;;;;;5336442;26;20280;-62
2024/04/20 08:06:02;;;;;;;0.90;0.80;;;6.60;97.30;;;;;;5335968;26;20703;-63
2024/04/20 08:08:30;;;;;;;0.90;0.80;;;6.60;97.30;;;;;;5341586;26;20707;-62
2024/04/20 08:10:56;;;;;;;0.80;0.70;;;6.60;97.30;;;;;;5336165;26;20571;-65
2024/04/20 08:13:22;;;;;;;3.37;2.30;;;6.80;97.30;;;;;;5330295;26;20581;-63
2024/04/20 08:15:48;;;;;;;0.90;0.83;;;7.00;97.30;;;;;;5341966;26;20457;-62
2024/04/20 08:18:13;;;;;;;1.47;1.37;;;7.20;97.30;;;;;;5337021;26;20746;-63
2024/04/20 08:20:39;;;;;;;0.90;0.80;;;7.40;97.30;;;;;;5336802;26;20941;-63
2024/04/20 08:23:04;;;;;;;1.10;0.90;;;7.50;97.30;;;;;;5339776;26;20818;-65
2024/04/20 08:25:30;;;;;;;0.90;0.80;;;7.60;97.30;;;;;;5336480;26;20566;-62
2024/04/20 08:27:55;;;;;;;0.90;0.80;;;7.50;97.30;;;;;;5339782;26;20317;-64
2024/04/20 08:30:21;;;;;;;1.13;1.03;;;7.30;97.30;;;;;;5340813;26;20223;-64
2024/04/20 08:32:47;;;;;;;1.00;0.90;;;7.20;97.30;;;;;;5341273;26;20645;-64
2024/04/20 08:35:14;;;;;;;1.10;1.00;;;7.10;97.30;;;;;;5331258;26;20281;-63
2024/04/20 08:37:39;;;;;;;1.10;1.00;;;6.90;97.30;;;;;;5338379;26;20783;-63
2024/04/20 08:40:07;;;;;;;0.70;0.70;;;6.80;97.30;;;;;;5340708;26;20449;-64
2024/04/20 08:42:35;;;;;;;0.90;0.80;;;6.80;97.30;;;;;;5334418;26;20255;-63
2024/04/20 08:45:03;;;;;;;0.80;0.70;;;6.90;97.30;;;;;;5341130;26;20514;-64
2024/04/20 08:47:32;;;;;;;1.20;1.10;;;7.00;97.30;;;;;;5340802;26;20505;-62
2024/04/20 08:49:59;;;;;;;0.90;0.80;;;7.30;97.30;;;;;;5334630;26;20457;-63
2024/04/20 08:52:26;;;;;;;0.90;0.80;;;7.60;97.30;;;;;;5336568;26;20529;-63
2024/04/20 08:54:54;;;;;;;1.00;0.93;;;7.80;97.30;;;;;;5341240;26;20742;-63
2024/04/20 08:57:22;;;;;;;0.80;0.70;;;7.90;97.30;;;;;;5340148;26;20457;-63
2024/04/20 08:59:48;;;;;;;0.93;0.87;;;8.20;97.30;;;;;;5340990;26;20446;-63
2024/04/20 09:02:18;;;;;;;0.80;0.70;;;8.50;97.30;;;;;;5340199;26;21044;-63
2024/04/20 09:04:44;;;;;;;1.87;1.30;;;8.40;97.30;;;;;;5319745;26;20992;-62
2024/04/20 09:07:10;;;;;;;1.07;0.97;;;8.20;96.70;;;;;;5326111;26;20608;-62
2024/04/20 09:09:37;;;;;;;0.80;0.70;;;8.00;96.00;;;;;;5326916;26;20486;-62
2024/04/20 09:12:03;;;;;;;0.93;0.83;;;8.00;97.30;;;;;;5334450;26;20234;-64
2024/04/20 09:14:28;;;;;;;1.37;1.27;;;7.90;96.20;;;;;;5338221;26;20465;-63
2024/04/20 09:16:54;;;;;;;1.43;1.07;;;8.00;97.30;;;;;;5338682;26;20238;-63
2024/04/20 09:19:20;;;;;;;0.90;0.80;;;8.00;96.20;;;;;;5340419;26;20227;-63
2024/04/20 09:21:45;;;;;;;0.80;0.70;;;8.00;97.20;;;;;;5340445;26;20235;-63
2024/04/20 09:24:13;;;;;;;1.30;1.20;;;7.90;96.60;;;;;;5340943;26;21058;-62
2024/04/20 09:26:38;;;;;;;0.80;0.70;;;8.20;97.10;;;;;;5340695;26;20325;-62
2024/04/20 09:29:05;;;;;;;0.80;0.70;;;8.40;95.80;;;;;;5340456;26;20474;-62
2024/04/20 09:31:32;;;;;;;0.90;0.80;;;8.60;95.60;;;;;;5340067;26;20239;-62
2024/04/20 09:33:59;;;;;;;0.90;0.80;;;8.50;94.50;;;;;;5338726;26;20868;-63
2024/04/20 09:36:25;;;;;;;0.90;0.80;;;8.40;96.10;;;;;;5339838;26;20812;-62
2024/04/20 09:38:50;;;;;;;0.90;0.80;;;8.50;97.30;;;;;;5336788;26;20582;-63
2024/04/20 09:41:16;;;;;;;3.10;1.10;;;8.70;96.40;;;;;;5338336;26;20280;-62
2024/04/20 09:43:43;;;;;;;1.20;1.10;;;8.90;96.00;;;;;;5334975;26;20261;-63
2024/04/20 09:46:10;;;;;;;0.90;0.80;;;9.20;95.50;;;;;;5339829;26;20230;-62
2024/04/20 09:48:36;;;;;;;1.20;1.10;;;9.40;95.10;;;;;;5339997;26;20470;-63
2024/04/20 09:51:17;;;;;;;1.20;1.13;;;9.70;94.50;;;;;;5337936;26;20525;-62
2024/04/20 09:53:55;;;;;;;0.80;0.70;;;9.80;92.30;;;;;;5328591;26;20446;-63
2024/04/20 09:56:23;;;;;;;0.90;0.87;;;9.80;92.60;;;;;;5327618;26;20512;-62
2024/04/20 09:58:50;;;;;;;2.30;2.10;;;9.90;91.30;;;;;;5336767;26;20909;-62
2024/04/20 10:01:17;;;;;;;0.90;0.80;;;9.70;89.80;;;;;;5339602;26;20544;-63
2024/04/20 10:03:43;;;;;;;0.90;0.80;;;9.40;88.90;;;;;;5339201;26;20457;-63
2024/04/20 10:06:11;;;;;;;1.10;1.00;;;9.00;91.10;;;;;;5333606;26;20802;-62
2024/04/20 10:08:40;;;;;;;1.33;1.30;;;8.60;93.80;;;;;;5327067;26;20504;-63
2024/04/20 10:11:06;;;;;;;3.00;2.03;;;8.30;95.10;;;;;;5334758;26;20533;-64
2024/04/20 10:13:33;;;;;;;1.00;0.90;;;8.10;95.20;;;;;;5327738;26;20568;-63
2024/04/20 10:16:00;;;;;;;1.13;1.03;;;7.90;95.60;;;;;;5328665;26;20518;-62
2024/04/20 10:18:26;;;;;;;0.90;0.80;;;8.00;95.50;;;;;;5331707;26;20469;-63
2024/04/20 10:20:57;;;;;;;1.40;1.30;;;8.30;94.90;;;;;;5336213;26;21064;-62
2024/04/20 10:23:24;;;;;;;1.73;1.00;;;8.60;92.50;;;;;;5339307;26;20227;-61
2024/04/20 10:25:53;;;;;;;0.93;0.83;;;8.90;91.00;;;;;;5339695;26;20509;-63
2024/04/20 10:28:32;;;;;;;0.90;0.80;;;9.00;92.10;;;;;;5323587;26;20989;-63
2024/04/20 10:31:00;;;;;;;0.80;0.70;;;9.40;91.70;;;;;;5324920;26;20532;-63
2024/04/20 10:33:31;;;;;;;0.90;0.80;;;9.50;89.80;;;;;;5320434;26;20477;-63
2024/04/20 10:36:11;;;;;;;0.87;0.77;;;9.30;88.40;;;;;;5329356;26;20469;-63
2024/04/20 10:38:38;;;;;;;1.00;0.90;;;9.00;88.50;;;;;;5328824;26;20599;-62
2024/04/20 10:41:14;;;;;;;1.60;0.90;;;8.70;90.60;;;;;;5331439;26;20466;-64
2024/04/20 10:43:49;;;;;;;0.90;0.80;;;8.60;89.90;;;;;;5337066;26;20449;-63
2024/04/20 10:46:18;;;;;;;0.80;0.70;;;8.50;90.90;;;;;;5334243;26;20532;-63
2024/04/20 10:48:55;;;;;;;0.90;0.80;;;8.70;91.50;;;;;;5323447;26;20458;-63
2024/04/20 10:51:21;;;;;;;0.80;0.77;;;9.10;92.30;;;;;;5329338;26;20453;-63
2024/04/20 10:53:55;;;;;;;0.87;0.77;;;9.50;91.20;;;;;;5335436;26;20465;-63
2024/04/20 10:56:21;;;;;;;0.70;0.70;;;10.00;91.00;;;;;;5339149;26;20774;-63
2024/04/20 10:58:46;;;;;;;1.07;0.97;;;10.30;89.40;;;;;;5327248;26;20518;-63
2024/04/20 11:01:15;;;;;;;1.50;1.40;;;10.30;88.70;;;;;;5323793;26;20243;-63
2024/04/20 11:03:42;;;;;;;1.17;1.10;;;10.00;86.50;;;;;;5335263;26;20640;-62
2024/04/20 11:06:07;;;;;;;12.00;0.90;;;9.80;87.30;;;;;;5330742;26;20977;-62
2024/04/20 11:08:38;;;;;;;1.00;0.90;;;9.60;87.10;;;;;;5336278;26;20522;-61
2024/04/20 11:11:04;;;;;;;0.83;0.70;;;9.30;88.80;;;;;;5316335;26;20341;-61
2024/04/20 11:13:31;;;;;;;0.77;0.73;;;9.20;91.90;;;;;;5330933;26;20477;-60
2024/04/20 11:15:58;;;;;;;1.17;1.10;;;9.30;93.00;;;;;;5327285;26;20635;-61
2024/04/20 11:18:25;;;;;;;0.80;0.70;;;9.30;89.60;;;;;;5338129;26;20457;-61
2024/04/20 11:20:51;;;;;;;0.97;0.87;;;9.30;88.50;;;;;;5339492;26;20466;-63
2024/04/20 11:23:17;;;;;;;0.90;0.90;;;9.20;90.00;;;;;;5339490;26;20517;-62
2024/04/20 11:25:52;;;;;;;0.90;0.80;;;9.30;89.80;;;;;;5339355;26;20478;-61
2024/04/20 11:28:18;;;;;;;1.33;1.23;;;9.60;90.20;;;;;;5337702;26;20234;-61
2024/04/20 11:30:44;;;;;;;3.60;1.53;;;10.00;89.20;;;;;;5321767;26;20537;-59
2024/04/20 11:33:12;;;;;;;0.90;0.80;;;10.20;87.60;;;;;;5339583;26;20537;-61
2024/04/20 11:35:39;;;;;;;1.30;1.20;;;10.40;86.80;;;;;;5336685;26;20328;-61
2024/04/20 11:38:05;;;;;;;0.80;0.70;;;10.70;85.70;;;;;;5338443;26;20586;-62
2024/04/20 11:40:32;;;;;;;3.00;1.40;;;10.70;84.50;;;;;;5318823;26;22318;-60
2024/04/20 11:43:01;;;;;;;1.07;1.00;;;10.20;84.20;;;;;;5326542;26;20466;-61
2024/04/20 11:45:27;;;;;;;0.80;0.70;;;9.90;85.40;;;;;;5311759;26;20458;-61
2024/04/20 11:47:53;;;;;;;1.00;0.90;;;9.60;86.90;;;;;;5316101;26;21000;-61
2024/04/20 11:50:19;;;;;;;0.90;0.90;;;9.50;87.70;;;;;;5301408;26;20243;-60
2024/04/20 11:55:42;;;;;;;0.80;0.70;;;9.60;88.80;;;;;;5318043;26;20529;-60
2024/04/20 11:58:11;;;;;;;0.90;0.80;;;9.60;88.90;;;;;;5309090;26;20522;-61
2024/04/20 12:00:37;;;;;;;0.97;0.87;;;9.50;89.10;;;;;;5315680;26;20457;-61
2024/04/20 12:03:04;;;;;;;0.80;0.70;;;9.50;88.10;;;;;;5313849;26;20474;-61
2024/04/20 12:05:30;;;;;;;0.90;0.80;;;9.90;86.20;;;;;;5336315;26;20523;-61
2024/04/20 12:07:55;;;;;;;0.90;0.80;;;10.30;84.00;;;;;;5307455;26;20463;-63
2024/04/20 12:10:21;;;;;;;0.90;0.80;;;10.30;84.20;;;;;;5307732;26;20240;-63
2024/04/20 12:12:47;;;;;;;0.90;0.80;;;10.00;83.20;;;;;;5317785;26;20243;-63
2024/04/20 12:15:12;;;;;;;1.00;0.90;;;9.70;83.40;;;;;;5315302;26;20240;-63
2024/04/20 12:17:38;;;;;;;0.80;0.70;;;9.60;83.90;;;;;;5322390;26;20247;-66
2024/04/20 12:20:04;;;;;;;1.13;1.03;;;9.50;84.90;;;;;;5326581;26;20743;-65
2024/04/20 12:22:30;;;;;;;0.90;0.80;;;9.50;84.60;;;;;;5323967;26;20255;-63
2024/04/20 12:24:58;;;;;;;1.03;0.93;;;9.50;85.10;;;;;;5310755;26;20590;-65
2024/04/20 12:27:23;;;;;;;1.00;0.90;;;9.40;85.00;;;;;;5327883;26;20585;-62
2024/04/20 12:29:49;;;;;;;0.87;0.80;;;9.80;84.90;;;;;;5306086;26;20475;-63
2024/04/20 12:32:16;;;;;;;0.93;0.83;;;10.40;82.90;;;;;;5308883;26;20232;-62
2024/04/20 12:34:42;;;;;;;0.97;0.87;;;10.90;83.40;;;;;;5315221;26;20852;-61
2024/04/20 12:37:07;;;;;;;1.00;0.90;;;11.30;82.10;;;;;;5306184;26;20974;-61
2024/04/20 12:39:33;;;;;;;3.03;1.63;;;11.60;81.50;;;;;;5304810;26;21259;-63
2024/04/20 12:41:58;;;;;;;0.90;0.80;;;11.80;81.20;;;;;;5304828;26;20235;-61
2024/04/20 12:44:24;;;;;;;1.00;0.97;;;11.70;80.70;;;;;;5307809;26;20278;-61
2024/04/20 12:46:52;;;;;;;1.30;1.20;;;11.20;80.80;;;;;;5307346;26;20251;-61
2024/04/20 12:49:18;;;;;;;1.37;1.00;;;11.00;83.00;;;;;;5319781;26;20269;-61
2024/04/20 12:51:43;;;;;;;2.70;1.43;;;11.50;84.60;;;;;;5307379;26;20949;-62
2024/04/20 12:54:09;;;;;;;0.90;0.80;;;12.00;82.10;;;;;;5320699;26;20340;-61
2024/04/20 12:56:35;;;;;;;1.90;1.00;;;12.50;81.70;;;;;;5320702;26;20279;-62
2024/04/20 12:59:00;;;;;;;1.17;1.07;;;12.60;80.60;;;;;;5305182;26;20582;-61
2024/04/20 13:01:26;;;;;;;0.70;0.70;;;12.50;80.90;;;;;;5308888;26;20287;-62
2024/04/20 13:03:52;;;;;;;1.00;0.90;;;12.80;82.30;;;;;;5316982;26;20232;-61
2024/04/20 13:06:17;;;;;;;1.20;1.10;;;12.60;80.80;;;;;;5306740;26;20247;-62
2024/04/20 13:08:43;;;;;;;1.10;1.00;;;12.20;79.90;;;;;;5305667;26;20233;-61
2024/04/20 13:11:09;;;;;;;1.03;0.93;;;12.10;82.40;;;;;;5305413;26;20232;-63
2024/04/20 13:13:35;;;;;;;0.70;0.70;;;11.90;78.70;;;;;;5306039;26;20732;-62
2024/04/20 13:16:03;;;;;;;0.83;0.77;;;11.60;78.30;;;;;;5318935;26;20563;-61
2024/04/20 13:18:29;;;;;;;0.80;0.80;;;11.20;78.40;;;;;;5305636;26;20535;-62
2024/04/20 13:20:55;;;;;;;0.90;0.80;;;11.00;80.80;;;;;;5322934;26;20880;-62
2024/04/20 13:23:22;;;;;;;1.03;0.97;;;10.90;80.50;;;;;;5323989;26;20694;-62
2024/04/20 13:25:52;;;;;;;0.80;0.70;;;11.40;82.30;;;;;;5339395;26;20511;-62
2024/04/20 13:28:22;;;;;;;5.60;1.67;;;11.70;79.60;;;;;;5340375;26;20499;-62
2024/04/20 13:30:54;;;;;;;0.80;0.70;;;11.60;80.30;;;;;;5326250;26;20514;-62
2024/04/20 13:33:20;;;;;;;0.90;0.80;;;11.50;82.70;;;;;;5326542;26;20633;-62
2024/04/20 13:35:53;;;;;;;0.90;0.80;;;11.40;80.80;;;;;;5343804;21;20542;-67
2024/04/20 13:38:19;;;;;;;1.00;0.90;;;11.40;78.50;;;;;;5315942;26;20478;-66
2024/04/20 13:40:55;;;;;;;0.90;0.80;;;11.20;79.20;;;;;;5296411;26;20468;-69
2024/04/20 13:43:24;;;;;;;1.30;1.20;;;11.00;77.90;;;;;;5297232;27;21026;-69
2024/04/20 13:45:53;;;;;;;0.80;0.70;;;10.90;79.70;;;;;;5283864;27;20549;-67
2024/04/20 13:48:20;;;;;;;0.90;0.80;;;10.80;79.80;;;;;;5270006;27;20523;-67
2024/04/20 13:50:46;;;;;;;0.90;0.80;;;10.80;80.60;;;;;;5290881;27;21117;-69
2024/04/20 13:53:12;;;;;;;0.70;0.70;;;10.60;79.20;;;;;;5276724;27;20468;-67
2024/04/20 13:55:38;;;;;;;1.00;0.90;;;10.50;80.30;;;;;;5268688;27;20510;-68
2024/04/20 13:58:04;;;;;;;0.90;0.80;;;10.50;80.20;;;;;;5270656;27;20531;-69
2024/04/20 14:00:29;;;;;;;1.00;0.90;;;10.50;79.80;;;;;;5272271;27;20483;-67
2024/04/20 14:02:55;;;;;;;1.13;0.80;;;10.60;80.50;;;;;;5281540;27;20295;-67
2024/04/20 14:05:20;;;;;;;1.70;1.57;;;10.60;80.40;;;;;;5288443;26;20236;-68
2024/04/20 14:07:46;;;;;;;0.80;0.70;;;10.50;80.30;;;;;;5268435;27;20263;-71
2024/04/20 14:10:14;;;;;;;2.87;0.90;;;10.70;81.80;;;;;;5279456;27;20284;-66
2024/04/20 14:12:40;;;;;;;1.00;0.90;;;11.10;79.30;;;;;;5279520;27;20686;-68
2024/04/20 14:15:06;;;;;;;1.57;1.47;;;11.80;79.80;;;;;;5290590;27;21289;-66
2024/04/20 14:17:31;;;;;;;2.00;1.20;;;12.30;76.90;;;;;;5284880;26;20620;-67
2024/04/20 14:19:57;;;;;;;4.33;1.23;;;12.30;78.10;;;;;;5284263;27;20654;-66
2024/04/20 14:22:23;;;;;;;0.90;0.80;;;12.10;78.00;;;;;;5282982;26;20294;-67
2024/04/20 14:24:48;;;;;;;1.37;0.90;;;11.80;78.20;;;;;;5283853;27;20247;-69
2024/04/20 14:27:14;;;;;;;0.90;0.80;;;12.00;79.10;;;;;;5286778;26;20237;-69
2024/04/20 14:29:45;;;;;;;0.90;0.80;;;12.30;77.80;;;;;;5281535;27;20233;-66
2024/04/20 14:32:11;;;;;;;1.47;1.10;;;12.30;78.50;;;;;;5295374;26;20583;-67
2024/04/20 14:34:37;;;;;;;0.90;0.80;;;12.30;78.60;;;;;;5266590;27;20484;-66
2024/04/20 14:37:03;;;;;;;0.80;0.70;;;12.70;78.70;;;;;;5280390;27;20312;-67
2024/04/20 14:39:29;;;;;;;1.23;1.20;;;12.70;78.10;;;;;;5279861;27;20906;-68
2024/04/20 14:41:54;;;;;;;0.90;0.80;;;12.40;76.50;;;;;;5299557;26;20526;-65
2024/04/20 14:44:20;;;;;;;1.37;1.00;;;12.40;77.70;;;;;;5289233;27;20315;-67
2024/04/20 14:46:45;;;;;;;1.50;1.20;;;12.70;77.90;;;;;;5288227;27;20224;-66
2024/04/20 14:49:11;;;;;;;1.03;1.03;;;12.80;77.10;;;;;;5302207;27;20275;-67
2024/04/20 14:51:36;;;;;;;0.87;0.80;;;12.90;78.40;;;;;;5282897;27;20236;-69
2024/04/20 14:54:02;;;;;;;1.20;1.10;;;13.00;78.00;;;;;;5271659;27;20785;-67
2024/04/20 14:56:28;;;;;;;1.50;0.90;;;12.70;77.50;;;;;;5281024;27;20232;-66
2024/04/20 14:58:54;;;;;;;1.13;0.97;;;12.30;79.50;;;;;;5284211;27;20822;-68
2024/04/20 15:01:20;;;;;;;3.13;1.10;;;12.20;79.80;;;;;;5293694;26;20295;-67
2024/04/20 15:03:45;;;;;;;0.70;0.70;;;12.20;80.00;;;;;;5283006;27;20540;-67
2024/04/20 15:06:11;;;;;;;0.70;0.70;;;12.00;79.60;;;;;;5290446;27;20239;-68
2024/04/20 15:08:36;;;;;;;1.00;0.90;;;11.80;80.00;;;;;;5285252;27;20232;-68
2024/04/20 15:11:22;;;;;;;4.00;1.00;;;11.50;81.10;;;;;;5288282;27;20323;-68
2024/04/20 15:13:48;;;;;;;0.80;0.70;;;11.20;82.80;;;;;;5272851;27;20274;-67
2024/04/20 15:16:14;;;;;;;1.00;0.90;;;10.90;82.80;;;;;;5277884;26;20469;-68
2024/04/20 15:18:42;;;;;;;0.77;0.70;;;10.70;83.80;;;;;;5285137;27;20524;-67
2024/04/20 15:21:07;;;;;;;1.00;0.90;;;10.50;83.10;;;;;;5279104;26;20779;-68
2024/04/20 15:23:33;;;;;;;1.10;1.00;;;10.30;82.10;;;;;;5268860;27;20473;-67
2024/04/20 15:25:58;;;;;;;1.00;0.90;;;10.20;83.10;;;;;;5281011;27;20739;-68
2024/04/20 15:28:24;;;;;;;0.97;0.87;;;10.10;84.70;;;;;;5270691;27;20272;-68
2024/04/20 15:30:53;;;;;;;1.33;1.17;;;10.10;86.80;;;;;;5282152;26;20233;-68
2024/04/20 15:33:19;;;;;;;1.03;1.00;;;10.10;83.20;;;;;;5294683;27;20266;-68
2024/04/20 15:35:45;;;;;;;0.90;0.80;;;10.10;84.10;;;;;;5297953;27;21011;-68
2024/04/20 15:38:10;;;;;;;1.00;0.90;;;10.10;85.30;;;;;;5278525;26;20241;-68
2024/04/20 15:40:36;;;;;;;0.90;0.80;;;10.00;86.40;;;;;;5268297;27;20280;-68
2024/04/20 15:43:05;;;;;;;1.00;0.90;;;9.90;84.70;;;;;;5289908;27;20278;-67
2024/04/20 15:45:30;;;;;;;1.33;1.23;;;9.90;84.60;;;;;;5285083;26;20276;-67
2024/04/20 15:47:56;;;;;;;0.90;0.80;;;9.90;84.30;;;;;;5274589;27;20467;-67
2024/04/20 15:50:22;;;;;;;0.90;0.80;;;9.80;85.50;;;;;;5296859;26;20299;-67
2024/04/20 15:52:51;;;;;;;1.00;0.90;;;9.80;84.60;;;;;;5272580;27;20237;-67
2024/04/20 15:55:20;;;;;;;1.10;1.00;;;9.70;84.80;;;;;;5277259;26;21037;-68
2024/04/20 15:57:46;;;;;;;1.20;1.10;;;9.70;85.30;;;;;;5277384;27;20532;-68
2024/04/20 16:00:11;;;;;;;1.00;1.00;;;9.60;84.20;;;;;;5267364;27;20907;-68
2024/04/20 16:02:37;;;;;;;2.40;0.80;;;9.50;85.60;;;;;;5280422;27;20245;-66
2024/04/20 16:05:03;;;;;;;1.60;1.50;;;9.30;90.40;;;;;;5269867;27;20230;-69
2024/04/20 16:07:28;;;;;;;1.00;0.90;;;9.10;92.30;;;;;;5267779;27;20421;-68
2024/04/20 16:09:54;;;;;;;0.90;0.80;;;8.90;93.90;;;;;;5292121;27;20249;-67
2024/04/20 16:12:20;;;;;;;2.40;2.10;;;8.70;96.20;;;;;;5280374;27;20236;-65
2024/04/20 16:14:46;;;;;;;1.20;1.10;;;8.30;97.30;;;;;;5282031;27;20288;-69
2024/04/20 16:17:11;;;;;;;0.90;0.80;;;7.80;97.30;;;;;;5296090;27;20751;-69
2024/04/20 16:19:37;;;;;;;0.93;0.83;;;7.40;97.30;;;;;;5270638;27;20344;-68
2024/04/20 16:22:03;;;;;;;0.90;0.90;;;7.10;97.30;;;;;;5270742;27;20302;-67
2024/04/20 16:24:28;;;;;;;1.83;1.73;;;7.00;97.30;;;;;;5272458;27;20758;-67
2024/04/20 16:27:09;;;;;;;1.33;1.20;;;7.00;97.30;;;;;;5270625;27;20560;-67
2024/04/20 16:29:35;;;;;;;1.10;1.00;;;6.90;97.30;;;;;;5272342;27;20601;-67
2024/04/20 16:32:00;;;;;;;0.90;0.80;;;6.90;97.30;;;;;;5272212;27;20987;-68
2024/04/20 16:34:28;;;;;;;0.90;0.80;;;6.90;97.30;;;;;;5270526;27;20744;-66
2024/04/20 16:36:54;;;;;;;1.00;0.90;;;6.90;97.30;;;;;;5271785;27;20249;-67
2024/04/20 16:39:19;;;;;;;1.20;1.10;;;6.90;97.30;;;;;;5271894;27;20531;-67
2024/04/20 16:41:45;;;;;;;1.07;1.07;;;7.00;97.30;;;;;;5271569;27;20845;-67
2024/04/20 16:44:10;;;;;;;1.90;0.87;;;7.00;97.30;;;;;;5272546;27;20301;-66
2024/04/20 16:46:36;;;;;;;1.20;1.10;;;7.00;97.30;;;;;;5271642;27;20230;-68
2024/04/20 16:49:02;;;;;;;1.00;0.90;;;7.00;97.30;;;;;;5270374;27;20249;-68
2024/04/20 16:51:27;;;;;;;1.10;1.00;;;6.90;97.30;;;;;;5271927;27;20237;-68
2024/04/20 16:53:53;;;;;;;0.90;0.80;;;7.00;97.30;;;;;;5271504;27;20316;-65